Time;durP1;ratioP1;P1;durP2;ratioP2;P2;SDS_P1;SDS_P2;PMS_P1;PMS_P2;Temp;Humidity;BMP_temperature;BMP_pressure;BME280_temperature;BME280_humidity;BME280_pressure;Samples;Min_cycle;Max_cycle;Signal;HPM_P1;HPM_P2
2021/12/09 00:00:15;;;;;;;3.13;0.73;;;5.10;99.90;;;;;;4884362;29;20396;-94
2021/12/09 00:02:41;;;;;;;5.90;0.90;;;5.10;99.90;;;;;;4882763;29;20040;-91
2021/12/09 00:05:10;;;;;;;7.22;0.68;;;5.00;99.90;;;;;;4883169;29;20022;-93
2021/12/09 00:07:36;;;;;;;2.93;0.60;;;5.00;99.90;;;;;;4883311;29;20132;-95
2021/12/09 00:10:07;;;;;;;0.90;0.45;;;5.00;99.90;;;;;;4883667;29;20076;-93
2021/12/09 00:12:33;;;;;;;3.33;0.63;;;4.90;99.90;;;;;;4881811;29;20048;-93
2021/12/09 00:14:59;;;;;;;0.90;0.50;;;4.90;99.90;;;;;;4925296;29;20091;-92
2021/12/09 00:17:25;;;;;;;1.40;0.50;;;4.80;99.90;;;;;;4941339;29;20058;-93
2021/12/09 00:19:51;;;;;;;1.17;0.35;;;4.80;99.90;;;;;;4941621;29;20297;-94
2021/12/09 00:22:17;;;;;;;1.70;0.25;;;4.80;99.90;;;;;;4938596;29;20035;-96
2021/12/09 00:24:43;;;;;;;0.38;0.30;;;4.70;99.90;;;;;;4930459;29;20036;-95
2021/12/09 00:27:09;;;;;;;1.58;0.30;;;4.60;99.90;;;;;;4930862;29;20039;-96
2021/12/09 00:29:34;;;;;;;2.08;0.20;;;4.50;99.90;;;;;;4933044;29;20024;-95
2021/12/09 00:32:00;;;;;;;0.15;0.10;;;4.50;99.90;;;;;;4933756;29;20063;-95
2021/12/09 00:34:33;;;;;;;0.98;0.20;;;4.50;99.90;;;;;;4939397;29;20027;-94
2021/12/09 00:37:15;;;;;;;0.30;0.30;;;4.40;99.90;;;;;;4936820;29;20046;-96
2021/12/09 00:39:42;;;;;;;0.73;0.60;;;4.40;99.90;;;;;;4926329;29;20585;-95
2021/12/09 00:42:09;;;;;;;1.02;0.40;;;4.40;99.90;;;;;;4925881;29;20028;-94
2021/12/09 00:44:37;;;;;;;2.05;0.40;;;4.40;99.90;;;;;;4927202;29;20109;-94
2021/12/09 00:47:05;;;;;;;0.47;0.30;;;4.40;99.90;;;;;;4929886;29;20031;-96
2021/12/09 00:49:31;;;;;;;2.40;0.40;;;4.40;99.90;;;;;;4927272;29;20040;-96
2021/12/09 00:52:00;;;;;;;1.30;0.30;;;4.40;99.90;;;;;;4929280;23;20052;-95
2021/12/09 00:54:26;;;;;;;1.05;0.60;;;4.50;99.90;;;;;;4898480;29;20510;-95
2021/12/09 00:56:52;;;;;;;2.97;0.45;;;4.50;99.90;;;;;;4899537;29;20049;-95
2021/12/09 00:59:19;;;;;;;2.88;0.85;;;4.50;99.90;;;;;;4884888;29;20097;-94
2021/12/09 01:01:45;;;;;;;3.13;0.52;;;4.50;99.90;;;;;;4891975;29;20040;-95
2021/12/09 01:04:11;;;;;;;1.00;0.50;;;4.60;99.90;;;;;;4889573;29;20036;-96
2021/12/09 01:06:37;;;;;;;2.58;0.40;;;4.60;99.90;;;;;;4884730;29;20029;-95
2021/12/09 01:09:05;;;;;;;2.25;0.60;;;4.60;99.90;;;;;;4892804;29;20046;-93
2021/12/09 01:11:31;;;;;;;1.42;0.47;;;4.60;99.90;;;;;;4912858;29;20041;-94
2021/12/09 01:13:56;;;;;;;2.28;0.40;;;4.70;99.90;;;;;;4902637;29;20073;-95
2021/12/09 01:16:22;;;;;;;3.55;0.50;;;4.70;99.90;;;;;;4889792;29;20112;-94
2021/12/09 01:18:49;;;;;;;1.98;0.45;;;4.70;99.90;;;;;;4893312;29;20044;-94
2021/12/09 01:21:14;;;;;;;5.70;0.60;;;4.60;99.90;;;;;;4889535;29;20025;-96
2021/12/09 01:23:41;;;;;;;1.63;0.45;;;4.70;99.90;;;;;;4888464;29;20104;-95
2021/12/09 01:26:07;;;;;;;9.48;1.88;;;4.60;99.90;;;;;;4887994;29;20069;-96
2021/12/09 01:28:45;;;;;;;7.57;1.60;;;4.60;99.90;;;;;;4901184;29;20041;-94
2021/12/09 01:31:11;;;;;;;5.00;2.13;;;4.70;99.90;;;;;;4888433;29;20036;-93
2021/12/09 01:33:37;;;;;;;5.47;1.00;;;4.70;99.90;;;;;;4897544;29;20102;-94
2021/12/09 01:36:05;;;;;;;5.60;1.40;;;4.70;99.90;;;;;;4895362;29;20029;-95
2021/12/09 01:38:32;;;;;;;6.63;0.85;;;4.70;99.90;;;;;;4890989;29;20025;-95
2021/12/09 01:40:59;;;;;;;11.25;1.08;;;4.70;99.90;;;;;;4870329;29;20048;-94
2021/12/09 01:43:25;;;;;;;9.75;1.15;;;4.80;99.90;;;;;;4884459;29;20033;-96
2021/12/09 01:46:06;;;;;;;6.95;1.35;;;4.80;99.90;;;;;;4898524;29;20059;-95
2021/12/09 01:48:35;;;;;;;11.88;1.20;;;4.80;99.90;;;;;;4869259;29;20029;-95
2021/12/09 01:51:04;;;;;;;5.30;1.13;;;4.80;99.90;;;;;;4870937;29;20029;-94
2021/12/09 01:53:34;;;;;;;7.53;1.17;;;4.80;99.90;;;;;;4906164;29;20123;-94
2021/12/09 01:56:02;;;;;;;6.78;1.00;;;4.90;99.90;;;;;;4905639;29;20020;-93
2021/12/09 01:58:28;;;;;;;8.07;1.05;;;4.90;99.90;;;;;;4905479;29;20032;-94
2021/12/09 02:00:57;;;;;;;6.53;1.10;;;5.00;99.90;;;;;;4904893;29;20031;-94
2021/12/09 02:03:24;;;;;;;6.70;1.00;;;5.00;99.90;;;;;;4904224;29;20092;-95
2021/12/09 02:05:49;;;;;;;8.55;1.05;;;5.00;99.90;;;;;;4905400;29;20031;-95
2021/12/09 02:08:16;;;;;;;7.20;1.30;;;5.00;99.90;;;;;;4904889;29;20040;-95
2021/12/09 02:10:44;;;;;;;5.85;1.02;;;5.00;99.90;;;;;;4904248;29;20028;-95
2021/12/09 02:13:10;;;;;;;16.02;1.75;;;5.00;99.90;;;;;;4903918;29;20032;-95
2021/12/09 02:15:37;;;;;;;13.32;1.85;;;5.00;99.90;;;;;;4908428;29;20042;-94
2021/12/09 02:18:11;;;;;;;11.23;1.83;;;5.00;99.90;;;;;;4913964;29;20103;-95
2021/12/09 02:20:38;;;;;;;10.02;1.77;;;5.10;99.90;;;;;;4914681;29;20095;-95
2021/12/09 02:23:09;;;;;;;17.45;1.83;;;5.10;99.90;;;;;;4931412;29;20032;-94
2021/12/09 02:25:37;;;;;;;14.85;2.25;;;5.10;99.90;;;;;;4914977;29;20028;-93
2021/12/09 02:28:04;;;;;;;14.95;2.38;;;5.10;99.90;;;;;;4916064;29;20039;-94
2021/12/09 02:30:30;;;;;;;21.70;3.55;;;5.10;99.90;;;;;;4920317;29;20032;-95
2021/12/09 02:32:56;;;;;;;8.52;2.47;;;5.10;99.90;;;;;;4919806;29;20035;-95
2021/12/09 02:35:21;;;;;;;8.23;1.63;;;5.10;99.90;;;;;;4916411;29;20051;-94
2021/12/09 02:37:49;;;;;;;21.25;2.25;;;5.10;99.90;;;;;;4914724;29;20044;-94
2021/12/09 02:40:16;;;;;;;10.18;2.40;;;5.10;99.90;;;;;;4913544;29;20091;-94
2021/12/09 02:42:42;;;;;;;10.38;2.58;;;5.10;99.90;;;;;;4912601;29;20032;-96
2021/12/09 02:45:09;;;;;;;17.17;2.17;;;5.10;99.90;;;;;;4911356;29;20438;-95
2021/12/09 02:47:35;;;;;;;10.98;2.03;;;5.10;99.90;;;;;;4913046;29;20042;-94
2021/12/09 02:50:02;;;;;;;10.13;1.60;;;5.10;99.90;;;;;;4911818;29;20056;-95
2021/12/09 02:52:28;;;;;;;16.48;2.15;;;5.10;99.90;;;;;;4919995;29;20052;-94
2021/12/09 02:54:53;;;;;;;11.25;1.90;;;5.10;99.90;;;;;;4912510;29;20375;-94
2021/12/09 02:57:19;;;;;;;7.22;1.48;;;5.10;99.90;;;;;;4908204;29;20036;-94
2021/12/09 02:59:45;;;;;;;14.65;1.90;;;5.10;99.90;;;;;;4908621;29;20036;-95
2021/12/09 03:02:12;;;;;;;13.93;1.73;;;5.10;99.90;;;;;;4911278;29;20067;-95
2021/12/09 03:04:40;;;;;;;20.55;1.80;;;5.10;99.90;;;;;;4914600;29;20020;-94
2021/12/09 03:07:10;;;;;;;10.13;1.40;;;5.10;99.90;;;;;;4923036;29;20044;-95
2021/12/09 03:09:37;;;;;;;11.55;1.58;;;5.10;99.90;;;;;;4911144;29;20028;-96
2021/12/09 03:12:05;;;;;;;17.08;3.25;;;5.10;99.90;;;;;;4908735;29;20040;-95
2021/12/09 03:14:32;;;;;;;19.65;2.30;;;5.10;99.90;;;;;;4909931;29;20068;-95
2021/12/09 03:16:58;;;;;;;14.43;1.85;;;5.20;99.90;;;;;;4920374;29;20065;-94
2021/12/09 03:19:24;;;;;;;18.05;2.28;;;5.20;99.90;;;;;;4915031;29;20038;-95
2021/12/09 03:21:50;;;;;;;16.88;3.28;;;5.30;99.90;;;;;;4915158;29;20060;-95
2021/12/09 03:24:18;;;;;;;22.10;3.67;;;5.40;99.90;;;;;;4918490;29;20059;-93
2021/12/09 03:26:54;;;;;;;13.50;1.75;;;5.40;99.90;;;;;;4917491;29;20028;-94
2021/12/09 03:29:21;;;;;;;16.73;3.97;;;5.50;99.90;;;;;;4910694;29;20030;-94
2021/12/09 03:31:49;;;;;;;19.33;2.22;;;5.50;99.90;;;;;;4909760;29;20055;-95
2021/12/09 03:34:17;;;;;;;15.07;2.17;;;5.60;99.90;;;;;;4912084;29;20024;-94
2021/12/09 03:36:43;;;;;;;10.02;2.22;;;5.60;99.90;;;;;;4912447;29;20162;-95
2021/12/09 03:39:17;;;;;;;10.48;1.73;;;5.60;99.90;;;;;;4911214;29;20055;-93
2021/12/09 03:41:48;;;;;;;10.70;2.10;;;5.60;99.90;;;;;;4907423;29;20074;-94
2021/12/09 03:44:14;;;;;;;18.08;2.67;;;5.70;99.90;;;;;;4906856;29;20032;-94
2021/12/09 03:46:40;;;;;;;14.63;2.67;;;5.70;99.90;;;;;;4905758;29;20059;-94
2021/12/09 03:49:07;;;;;;;18.00;2.03;;;5.70;99.90;;;;;;4907622;29;20035;-94
2021/12/09 03:51:35;;;;;;;19.00;2.00;;;5.70;99.90;;;;;;4916009;29;20086;-94
2021/12/09 03:54:08;;;;;;;14.52;2.47;;;5.70;99.90;;;;;;4907505;29;20028;-95
2021/12/09 03:56:35;;;;;;;15.13;1.98;;;5.80;99.90;;;;;;4905116;29;20486;-94
2021/12/09 03:59:01;;;;;;;16.48;2.50;;;5.80;99.90;;;;;;4904605;29;20477;-94
2021/12/09 04:01:27;;;;;;;10.90;1.45;;;5.80;99.90;;;;;;4904013;29;20032;-95
2021/12/09 04:03:53;;;;;;;8.95;1.80;;;5.80;99.90;;;;;;4904958;29;20024;-94
2021/12/09 04:06:19;;;;;;;5.70;1.17;;;5.80;99.90;;;;;;4906173;29;20024;-93
2021/12/09 04:08:45;;;;;;;6.30;1.30;;;5.80;99.90;;;;;;4909123;29;20031;-93
2021/12/09 04:11:11;;;;;;;4.68;0.95;;;5.80;99.90;;;;;;4911623;29;20035;-93
2021/12/09 04:13:38;;;;;;;9.40;1.40;;;5.80;99.90;;;;;;4912745;29;20048;-90
2021/12/09 04:16:07;;;;;;;7.30;1.27;;;5.80;99.90;;;;;;4917271;29;20064;-92
2021/12/09 04:18:34;;;;;;;9.48;0.95;;;5.80;99.90;;;;;;4903943;29;20032;-92
2021/12/09 04:20:59;;;;;;;7.80;1.10;;;5.80;99.90;;;;;;4924053;29;20036;-89
2021/12/09 04:23:25;;;;;;;16.17;2.00;;;5.80;99.90;;;;;;4938631;29;20048;-93
2021/12/09 04:25:52;;;;;;;8.23;1.50;;;5.80;99.90;;;;;;4913705;29;20035;-95
2021/12/09 04:28:19;;;;;;;5.95;1.02;;;5.70;99.90;;;;;;4911494;29;20024;-93
2021/12/09 04:30:45;;;;;;;14.05;1.92;;;5.70;99.90;;;;;;4917183;29;20091;-94
2021/12/09 04:33:11;;;;;;;14.68;1.55;;;5.70;99.90;;;;;;4923412;29;20027;-91
2021/12/09 04:35:37;;;;;;;8.10;1.30;;;5.70;99.90;;;;;;4925586;29;20032;-88
2021/12/09 04:38:03;;;;;;;7.45;1.40;;;5.70;99.90;;;;;;4919961;29;20048;-94
2021/12/09 04:40:28;;;;;;;10.55;1.52;;;5.80;99.90;;;;;;4922148;29;20032;-92
2021/12/09 04:42:54;;;;;;;10.73;1.27;;;5.80;99.90;;;;;;4924406;29;20070;-92
2021/12/09 04:45:20;;;;;;;4.95;1.20;;;5.70;99.90;;;;;;4921872;29;20039;-94
2021/12/09 04:47:46;;;;;;;6.75;1.42;;;5.70;99.90;;;;;;4923499;29;20126;-93
2021/12/09 04:50:12;;;;;;;8.07;1.38;;;5.70;99.90;;;;;;4924430;29;20024;-92
2021/12/09 04:52:39;;;;;;;9.35;1.35;;;5.70;99.90;;;;;;4921897;29;20119;-92
2021/12/09 04:55:07;;;;;;;9.10;1.80;;;5.80;99.90;;;;;;4924929;29;20186;-92
2021/12/09 04:57:34;;;;;;;10.07;1.20;;;5.70;99.90;;;;;;4923971;29;20048;-93
2021/12/09 05:00:00;;;;;;;7.28;1.55;;;5.70;99.90;;;;;;4924894;29;20016;-92
2021/12/09 05:05:11;;;;;;;16.20;2.60;;;5.80;99.90;;;;;;4940884;29;20035;-89
2021/12/09 05:07:37;;;;;;;12.38;1.70;;;5.80;99.90;;;;;;4923512;29;20020;-92
2021/12/09 05:10:04;;;;;;;7.95;1.13;;;5.80;99.90;;;;;;4923595;29;20020;-91
2021/12/09 05:12:29;;;;;;;7.85;1.08;;;5.70;99.90;;;;;;4920430;29;20163;-94
2021/12/09 05:14:55;;;;;;;7.85;1.30;;;5.70;99.90;;;;;;4896803;29;20068;-94
2021/12/09 05:17:21;;;;;;;5.72;0.80;;;5.70;99.90;;;;;;4904620;29;20040;-94
2021/12/09 05:19:47;;;;;;;7.38;0.93;;;5.70;99.90;;;;;;4905461;29;20020;-95
2021/12/09 05:22:13;;;;;;;4.65;0.80;;;5.70;99.90;;;;;;4905252;29;20032;-96
2021/12/09 05:24:40;;;;;;;6.65;1.10;;;5.60;99.90;;;;;;4909170;29;20028;-95
2021/12/09 05:27:07;;;;;;;13.30;1.65;;;5.60;99.90;;;;;;4914238;29;20028;-93
2021/12/09 05:29:39;;;;;;;9.52;1.30;;;5.60;99.90;;;;;;4917662;29;20031;-96
2021/12/09 05:32:07;;;;;;;12.85;1.60;;;5.60;99.90;;;;;;4914580;29;20029;-95
2021/12/09 05:34:39;;;;;;;11.07;1.48;;;5.60;99.90;;;;;;4909411;29;20024;-95
2021/12/09 05:37:11;;;;;;;12.25;1.80;;;5.60;99.90;;;;;;4906082;29;20052;-93
2021/12/09 05:39:37;;;;;;;17.92;2.88;;;5.60;99.90;;;;;;4908952;29;20043;-96
2021/12/09 05:42:06;;;;;;;18.58;2.33;;;5.60;99.90;;;;;;4906262;29;20035;-95
2021/12/09 05:44:33;;;;;;;20.50;2.22;;;5.60;99.90;;;;;;4906508;29;20087;-93
2021/12/09 05:46:59;;;;;;;14.90;2.20;;;5.60;99.90;;;;;;4902401;29;20028;-95
2021/12/09 05:49:25;;;;;;;36.95;5.95;;;5.70;99.90;;;;;;4902894;29;20031;-96
2021/12/09 05:51:51;;;;;;;20.98;2.38;;;5.70;99.90;;;;;;4904829;29;20051;-93
2021/12/09 05:54:17;;;;;;;25.20;3.00;;;5.70;99.90;;;;;;4906177;29;20028;-95
2021/12/09 05:56:43;;;;;;;21.85;2.97;;;5.70;99.90;;;;;;4906956;29;20091;-94
2021/12/09 05:59:10;;;;;;;20.38;2.45;;;5.70;99.90;;;;;;4912270;29;20064;-94
2021/12/09 06:01:38;;;;;;;16.52;2.40;;;5.70;99.90;;;;;;4917516;29;20028;-93
2021/12/09 06:04:05;;;;;;;14.43;3.67;;;5.70;99.90;;;;;;4917277;29;20052;-93
2021/12/09 06:06:31;;;;;;;14.90;2.22;;;5.80;99.90;;;;;;4900798;29;20028;-94
2021/12/09 06:08:57;;;;;;;13.13;2.55;;;5.80;99.90;;;;;;4914548;29;20028;-93
2021/12/09 06:11:23;;;;;;;13.90;2.72;;;5.80;99.90;;;;;;4914669;29;20108;-94
2021/12/09 06:13:49;;;;;;;17.38;2.13;;;5.80;99.90;;;;;;4918410;29;20028;-92
2021/12/09 06:16:16;;;;;;;19.75;2.97;;;5.80;99.90;;;;;;4925147;29;20028;-92
2021/12/09 06:18:42;;;;;;;14.77;1.88;;;5.70;99.90;;;;;;4910975;29;20024;-93
2021/12/09 06:21:08;;;;;;;19.55;2.47;;;5.80;99.90;;;;;;4909661;29;20028;-94
2021/12/09 06:23:34;;;;;;;14.48;2.00;;;5.80;99.90;;;;;;4912680;29;20043;-95
2021/12/09 06:26:00;;;;;;;16.27;2.00;;;5.80;99.90;;;;;;4911153;29;20031;-93
2021/12/09 06:28:26;;;;;;;17.25;2.05;;;5.80;99.90;;;;;;4933758;29;20036;-94
2021/12/09 06:30:52;;;;;;;13.23;1.80;;;5.80;99.90;;;;;;4913914;29;20024;-93
2021/12/09 06:33:18;;;;;;;9.25;2.28;;;5.80;99.90;;;;;;4912485;29;20040;-94
2021/12/09 06:35:43;;;;;;;12.93;2.13;;;5.80;99.90;;;;;;4908913;29;20456;-92
2021/12/09 06:38:14;;;;;;;15.50;2.47;;;5.70;99.90;;;;;;4911797;29;20117;-95
2021/12/09 06:40:40;;;;;;;21.73;2.63;;;5.70;99.90;;;;;;4912705;29;20020;-94
2021/12/09 06:43:06;;;;;;;16.33;2.28;;;5.70;99.90;;;;;;4906361;29;20489;-94
2021/12/09 06:45:32;;;;;;;27.20;4.53;;;5.70;99.90;;;;;;4909196;29;20075;-95
2021/12/09 06:47:59;;;;;;;18.65;2.42;;;5.70;99.90;;;;;;4913483;29;20094;-94
2021/12/09 06:50:25;;;;;;;12.05;2.53;;;5.70;99.90;;;;;;4910187;29;20032;-96
2021/12/09 06:52:50;;;;;;;12.23;2.20;;;5.70;99.90;;;;;;4909425;29;20456;-96
2021/12/09 06:55:18;;;;;;;19.90;2.35;;;5.70;99.90;;;;;;4908154;29;20028;-95
2021/12/09 06:57:44;;;;;;;25.20;2.28;;;5.70;99.90;;;;;;4904001;29;20099;-95
2021/12/09 07:00:13;;;;;;;24.65;3.47;;;5.70;99.90;;;;;;4905172;29;20027;-95
2021/12/09 07:02:39;;;;;;;23.13;3.03;;;5.70;99.90;;;;;;4905466;29;20088;-92
2021/12/09 07:05:07;;;;;;;22.23;2.70;;;5.70;99.90;;;;;;4905064;29;20024;-92
2021/12/09 07:07:33;;;;;;;24.25;2.35;;;5.70;99.90;;;;;;4907327;29;20083;-92
2021/12/09 07:09:59;;;;;;;18.67;2.05;;;5.70;99.90;;;;;;4907394;29;20095;-93
2021/12/09 07:12:24;;;;;;;27.15;4.35;;;5.70;99.90;;;;;;4910066;29;20478;-93
2021/12/09 07:14:51;;;;;;;12.75;2.20;;;5.70;99.90;;;;;;4909913;29;20118;-94
2021/12/09 07:17:17;;;;;;;18.63;2.15;;;5.70;99.90;;;;;;4908731;29;20103;-94
2021/12/09 07:19:43;;;;;;;13.75;1.80;;;5.70;99.90;;;;;;4906688;29;20620;-94
2021/12/09 07:22:09;;;;;;;23.48;4.03;;;5.70;99.90;;;;;;4906668;29;20028;-93
2021/12/09 07:24:35;;;;;;;13.07;2.58;;;5.70;99.90;;;;;;4904733;29;20072;-95
2021/12/09 07:27:01;;;;;;;19.13;2.50;;;5.70;99.90;;;;;;4904793;29;20478;-95
2021/12/09 07:29:31;;;;;;;19.25;2.47;;;5.70;99.90;;;;;;4904291;29;20107;-95
2021/12/09 07:31:57;;;;;;;17.40;2.42;;;5.70;99.90;;;;;;4904775;29;20438;-94
2021/12/09 07:34:22;;;;;;;26.17;2.70;;;5.70;99.90;;;;;;4904412;29;20028;-94
2021/12/09 07:36:48;;;;;;;19.13;2.72;;;5.70;99.90;;;;;;4904610;29;20532;-92
2021/12/09 07:39:14;;;;;;;19.63;2.70;;;5.70;99.90;;;;;;4904071;29;20498;-93
2021/12/09 07:41:40;;;;;;;24.15;2.80;;;5.70;99.90;;;;;;4905860;29;20020;-94
2021/12/09 07:44:06;;;;;;;19.40;3.50;;;5.70;99.90;;;;;;4905931;29;20030;-95
2021/12/09 07:46:34;;;;;;;15.23;2.92;;;5.70;99.90;;;;;;4911991;29;20044;-94
2021/12/09 07:49:00;;;;;;;26.17;2.70;;;5.70;99.90;;;;;;4937426;29;20020;-92
2021/12/09 07:51:26;;;;;;;31.42;2.67;;;5.70;99.90;;;;;;4922794;29;20068;-95
2021/12/09 07:53:52;;;;;;;15.95;2.90;;;5.70;99.90;;;;;;4912527;29;20055;-94
2021/12/09 07:56:19;;;;;;;15.52;3.15;;;5.70;99.90;;;;;;4922690;29;20030;-92
2021/12/09 07:58:45;;;;;;;24.70;3.55;;;5.70;99.90;;;;;;4924395;29;20032;-90
2021/12/09 08:01:11;;;;;;;28.55;3.78;;;5.70;99.90;;;;;;4917488;29;20024;-92
2021/12/09 08:03:37;;;;;;;23.35;3.95;;;5.70;99.90;;;;;;4910442;29;20032;-95
2021/12/09 08:06:04;;;;;;;20.45;3.38;;;5.70;99.90;;;;;;4916768;29;20031;-93
2021/12/09 08:08:33;;;;;;;21.52;3.63;;;5.70;99.90;;;;;;4910712;29;20116;-95
2021/12/09 08:10:59;;;;;;;25.52;4.50;;;5.70;99.90;;;;;;4906530;29;20092;-94
2021/12/09 08:13:24;;;;;;;27.35;3.75;;;5.60;99.90;;;;;;4910905;29;20425;-94
2021/12/09 08:15:53;;;;;;;24.30;4.43;;;5.60;99.90;;;;;;4906241;29;20025;-93
2021/12/09 08:20:53;;;;;;;31.17;3.90;;;5.60;99.90;;;;;;4931836;29;20040;-94
2021/12/09 08:23:19;;;;;;;31.08;5.68;;;5.60;99.90;;;;;;4911473;29;20028;-94
2021/12/09 08:25:47;;;;;;;17.75;3.85;;;5.60;99.90;;;;;;4914341;29;20032;-94
2021/12/09 08:28:13;;;;;;;30.38;4.60;;;5.50;99.90;;;;;;4910365;29;20038;-94
2021/12/09 08:30:39;;;;;;;22.52;3.17;;;5.50;99.90;;;;;;4921070;29;20064;-92
2021/12/09 08:33:06;;;;;;;22.48;4.30;;;5.50;99.90;;;;;;4917373;29;20200;-92
2021/12/09 08:35:33;;;;;;;29.38;4.65;;;5.50;99.90;;;;;;4919652;29;20158;-94
2021/12/09 08:37:59;;;;;;;10.23;2.45;;;5.50;99.90;;;;;;4911084;29;20040;-95
2021/12/09 08:40:26;;;;;;;18.35;2.78;;;5.50;99.90;;;;;;4922189;29;20066;-88
2021/12/09 08:42:57;;;;;;;20.83;2.70;;;5.50;99.90;;;;;;4925446;29;20020;-91
2021/12/09 08:45:24;;;;;;;19.65;2.83;;;5.50;99.90;;;;;;4909074;29;20035;-92
2021/12/09 08:47:52;;;;;;;10.15;2.60;;;5.50;99.90;;;;;;4925314;29;20047;-90
2021/12/09 08:50:21;;;;;;;12.82;2.20;;;5.50;99.90;;;;;;4925407;29;20012;-92
2021/12/09 08:52:48;;;;;;;10.45;2.35;;;5.40;99.90;;;;;;4921769;29;20060;-93
2021/12/09 08:55:15;;;;;;;9.95;2.05;;;5.40;99.90;;;;;;4912705;29;20008;-95
2021/12/09 08:57:41;;;;;;;9.68;2.10;;;5.40;99.90;;;;;;4916885;29;20051;-95
2021/12/09 09:00:10;;;;;;;13.45;2.47;;;5.40;99.90;;;;;;4919797;29;20012;-91
2021/12/09 09:02:39;;;;;;;18.90;2.40;;;5.40;99.90;;;;;;4921839;29;20021;-91
2021/12/09 09:05:10;;;;;;;9.25;2.10;;;5.40;99.90;;;;;;4921576;29;20092;-92
2021/12/09 09:07:40;;;;;;;9.40;1.73;;;5.40;99.90;;;;;;4921363;29;20044;-91
2021/12/09 09:10:07;;;;;;;15.45;2.53;;;5.40;99.90;;;;;;4921495;29;20030;-93
2021/12/09 09:12:34;;;;;;;20.92;3.85;;;5.40;99.90;;;;;;4920927;29;20025;-95
2021/12/09 09:15:12;;;;;;;15.60;2.70;;;5.40;99.90;;;;;;4919766;29;20080;-94
2021/12/09 09:17:38;;;;;;;26.30;3.92;;;5.40;99.90;;;;;;4919993;29;20024;-93
2021/12/09 09:20:06;;;;;;;19.08;3.30;;;5.40;99.90;;;;;;4920453;29;20032;-94
2021/12/09 09:22:32;;;;;;;12.50;3.47;;;5.40;99.90;;;;;;4935022;29;20020;-93
2021/12/09 09:24:58;;;;;;;12.55;2.53;;;5.40;99.90;;;;;;4905876;29;20025;-92
2021/12/09 09:27:25;;;;;;;17.17;4.70;;;5.40;99.90;;;;;;4921126;29;20033;-91
2021/12/09 09:29:51;;;;;;;18.92;3.65;;;5.30;99.90;;;;;;4920987;29;20016;-93
2021/12/09 09:32:17;;;;;;;17.85;3.03;;;5.30;99.90;;;;;;4921154;29;20026;-93
2021/12/09 09:34:43;;;;;;;18.52;4.03;;;5.30;99.90;;;;;;4921422;29;20028;-93
2021/12/09 09:37:08;;;;;;;27.75;4.70;;;5.40;99.90;;;;;;4920912;29;20037;-91
2021/12/09 09:39:34;;;;;;;29.02;4.47;;;5.30;99.90;;;;;;4921592;29;20032;-92
2021/12/09 09:44:56;;;;;;;7.45;2.20;;;5.30;99.90;;;;;;4914853;29;20084;-90
2021/12/09 09:47:24;;;;;;;21.70;3.97;;;5.30;99.90;;;;;;4921669;29;20039;-91
2021/12/09 09:49:51;;;;;;;16.48;3.40;;;5.30;99.90;;;;;;4939962;29;20049;-91
2021/12/09 09:52:17;;;;;;;14.90;3.22;;;5.30;99.90;;;;;;4947003;28;20043;-91
2021/12/09 09:54:43;;;;;;;24.58;4.10;;;5.30;99.90;;;;;;4943234;28;20026;-89
2021/12/09 09:57:10;;;;;;;17.27;5.70;;;5.30;99.90;;;;;;4943245;28;20046;-92
2021/12/09 09:59:40;;;;;;;21.50;5.47;;;5.30;99.90;;;;;;4942121;28;20039;-91
2021/12/09 10:02:11;;;;;;;17.05;6.30;;;5.30;99.90;;;;;;4943282;28;20023;-89
2021/12/09 10:04:47;;;;;;;18.25;6.20;;;5.40;99.90;;;;;;4938731;29;20020;-92
2021/12/09 10:07:24;;;;;;;19.30;5.97;;;5.30;99.90;;;;;;4919015;29;20028;-90
2021/12/09 10:09:51;;;;;;;20.77;6.88;;;5.40;99.90;;;;;;4922480;29;20085;-90
2021/12/09 10:12:18;;;;;;;20.95;6.25;;;5.40;99.90;;;;;;4923375;29;20045;-90
2021/12/09 10:14:52;;;;;;;28.02;6.10;;;5.40;99.90;;;;;;4922423;29;20020;-90
2021/12/09 10:17:24;;;;;;;22.58;6.38;;;5.50;99.90;;;;;;4923475;29;20032;-90
2021/12/09 10:19:56;;;;;;;25.50;7.70;;;5.50;99.90;;;;;;4923629;29;20024;-92
2021/12/09 10:22:25;;;;;;;22.23;6.03;;;5.60;99.90;;;;;;4918763;29;20044;-92
2021/12/09 10:24:53;;;;;;;29.67;7.07;;;5.60;99.90;;;;;;4923388;29;20020;-90
2021/12/09 10:27:28;;;;;;;22.85;7.47;;;5.70;99.90;;;;;;4923200;29;20079;-92
2021/12/09 10:29:59;;;;;;;24.48;8.70;;;5.90;99.90;;;;;;4921037;29;20030;-91
2021/12/09 10:32:30;;;;;;;27.38;6.63;;;6.20;99.90;;;;;;4923444;29;20050;-92
2021/12/09 10:35:07;;;;;;;23.77;5.82;;;6.40;99.90;;;;;;4921203;29;20012;-92
2021/12/09 10:37:35;;;;;;;21.33;6.10;;;6.60;99.90;;;;;;4924172;29;20044;-92
2021/12/09 10:40:08;;;;;;;23.40;5.78;;;6.60;99.90;;;;;;4920950;29;20012;-93
2021/12/09 10:42:39;;;;;;;19.55;5.53;;;6.60;99.90;;;;;;4922239;29;20052;-92
2021/12/09 10:45:17;;;;;;;24.45;6.00;;;6.70;99.90;;;;;;4917255;29;20074;-92
2021/12/09 10:48:05;;;;;;;23.42;6.40;;;6.90;99.90;;;;;;4923707;29;20025;-91
2021/12/09 10:50:47;;;;;;;22.27;5.97;;;7.20;99.90;;;;;;4925174;29;20004;-92
2021/12/09 10:56:10;;;;;;;11.23;3.63;;;8.00;99.90;;;;;;4922345;29;20036;-95
2021/12/09 10:58:42;;;;;;;20.45;4.40;;;8.30;99.90;;;;;;4920165;29;20028;-92
2021/12/09 11:01:16;;;;;;;17.08;3.25;;;8.50;99.90;;;;;;4922419;29;20021;-93
2021/12/09 11:03:53;;;;;;;16.33;3.03;;;8.70;99.90;;;;;;4916947;29;20059;-91
2021/12/09 11:06:21;;;;;;;17.75;2.90;;;8.80;99.90;;;;;;4922142;29;20100;-94
2021/12/09 11:08:53;;;;;;;15.23;2.55;;;8.80;99.90;;;;;;4918894;29;20013;-91
2021/12/09 11:11:32;;;;;;;11.82;2.28;;;8.70;99.90;;;;;;4922471;29;20028;-91
2021/12/09 11:14:17;;;;;;;14.07;2.53;;;8.60;99.90;;;;;;4922042;29;20047;-93
2021/12/09 11:17:02;;;;;;;10.55;2.35;;;8.30;99.90;;;;;;4937377;29;20028;-92
2021/12/09 11:19:38;;;;;;;15.38;2.88;;;8.00;99.90;;;;;;4916757;29;20323;-93
2021/12/09 11:22:14;;;;;;;13.55;1.73;;;7.80;99.90;;;;;;4921941;29;20031;-90
2021/12/09 11:24:45;;;;;;;14.38;2.17;;;7.60;99.90;;;;;;4919469;29;20044;-94
2021/12/09 11:27:13;;;;;;;18.10;2.17;;;7.40;99.90;;;;;;4912082;29;20522;-93
2021/12/09 11:29:50;;;;;;;12.43;1.80;;;7.50;99.90;;;;;;4916052;29;20041;-93
2021/12/09 11:35:09;;;;;;;10.95;2.45;;;7.50;99.90;;;;;;4917566;29;20112;-94
2021/12/09 11:40:31;;;;;;;17.70;1.77;;;7.40;99.90;;;;;;4916842;29;20039;-94
2021/12/09 11:43:00;;;;;;;9.05;1.45;;;7.40;99.90;;;;;;4917938;29;20029;-94
2021/12/09 11:45:35;;;;;;;19.55;1.95;;;7.20;99.90;;;;;;4918032;29;20088;-95
2021/12/09 11:48:04;;;;;;;12.20;2.30;;;7.10;99.90;;;;;;4918042;29;20046;-93
2021/12/09 11:50:32;;;;;;;17.77;2.38;;;7.00;99.90;;;;;;4913963;29;20056;-95
2021/12/09 11:53:00;;;;;;;16.13;2.15;;;6.90;99.90;;;;;;4907108;29;20033;-94
2021/12/09 11:55:58;;;;;;;11.13;2.00;;;6.80;99.90;;;;;;4900029;29;20029;-91
2021/12/09 11:58:22;;;;;;;11.95;1.50;;;6.80;99.90;;;;;;4898112;29;20113;-94
2021/12/09 12:12:38;;;;;;;;;;;6.90;99.90;;;;;;4898429;29;20032;-95
2021/12/09 12:15:29;;;;;;;19.55;3.33;;;7.60;99.90;;;;;;4898695;29;19916;-90
2021/12/09 12:18:16;;;;;;;5.75;1.30;;;8.50;99.90;;;;;;4899142;29;20036;-93
2021/12/09 12:21:02;;;;;;;7.95;1.25;;;9.50;99.90;;;;;;4895275;29;20049;-90
2021/12/09 12:23:57;;;;;;;9.35;1.20;;;10.30;99.90;;;;;;4887735;29;20017;-92
2021/12/09 12:26:59;;;;;;;19.85;2.42;;;10.80;99.90;;;;;;4887819;29;20029;-91
2021/12/09 12:38:30;;;;;;;9.98;1.90;;;10.30;99.90;;;;;;4903408;29;20100;-91
2021/12/09 12:41:11;;;;;;;14.00;1.58;;;10.00;99.90;;;;;;4901549;29;20032;-90
2021/12/09 12:43:44;;;;;;;8.32;1.40;;;9.60;99.90;;;;;;4905540;29;20097;-91
2021/12/09 12:46:37;;;;;;;12.25;1.90;;;9.20;99.90;;;;;;4902297;29;20021;-91
2021/12/09 12:52:16;;;;;;;9.50;1.00;;;8.80;99.90;;;;;;4856287;29;20042;-90
2021/12/09 12:55:02;;;;;;;10.40;1.90;;;9.30;99.90;;;;;;4917305;29;20017;-89
2021/12/09 12:57:33;;;;;;;14.02;2.10;;;9.60;99.90;;;;;;4921675;29;20115;-92
2021/12/09 13:00:05;;;;;;;8.70;1.60;;;9.90;99.90;;;;;;4923406;29;20035;-92
2021/12/09 13:06:06;;;;;;;5.13;1.48;;;10.30;99.90;;;;;;4940070;29;20015;-94
2021/12/09 13:09:07;;;;;;;9.52;1.65;;;10.60;99.90;;;;;;4907065;29;20031;-90
2021/12/09 13:12:06;;;;;;;8.50;2.08;;;11.00;99.90;;;;;;4923831;29;20024;-90
2021/12/09 13:14:35;;;;;;;9.20;1.75;;;11.40;98.90;;;;;;4921329;29;20028;-92
2021/12/09 13:17:15;;;;;;;8.45;1.35;;;11.60;96.90;;;;;;4923827;29;20025;-90
2021/12/09 13:20:00;;;;;;;10.95;1.52;;;11.90;95.80;;;;;;4921932;29;20090;-91
2021/12/09 13:22:36;;;;;;;8.18;1.52;;;12.00;94.00;;;;;;4920007;29;20036;-91
2021/12/09 13:33:38;;;;;;;6.78;1.83;;;12.80;88.30;;;;;;4939341;29;20067;-93
2021/12/09 13:47:18;;;;;;;5.05;1.20;;;13.50;83.70;;;;;;4934099;29;20063;-95
2021/12/09 13:55:06;;;;;;;9.30;1.40;;;12.70;83.90;;;;;;4934712;29;20048;-92
2021/12/09 13:57:35;;;;;;;9.55;2.10;;;12.20;84.80;;;;;;4915696;29;20099;-93
2021/12/09 14:00:06;;;;;;;13.85;1.98;;;11.90;84.90;;;;;;4915890;29;20020;-90
2021/12/09 14:02:31;;;;;;;8.55;1.73;;;11.80;84.30;;;;;;4920403;29;20036;-92
2021/12/09 14:04:58;;;;;;;8.80;2.03;;;11.70;84.70;;;;;;4920803;29;20048;-89
2021/12/09 14:07:31;;;;;;;8.88;1.60;;;11.50;84.90;;;;;;4922104;29;20024;-90